sensor_id;sensor_type;location;lat;lon;timestamp;pressure;altitude;pressure_sealevel;temperature;humidity
31538;BME280;18147;51.952;6.146;2022-07-03T00:01:10;101689.50;;;16.34;94.95
31538;BME280;18147;51.952;6.146;2022-07-03T00:03:36;101688.31;;;16.38;94.26
31538;BME280;18147;51.952;6.146;2022-07-03T00:06:01;101684.13;;;16.34;94.96
31538;BME280;18147;51.952;6.146;2022-07-03T00:08:26;101694.69;;;16.37;95.22
31538;BME280;18147;51.952;6.146;2022-07-03T00:10:52;101673.34;;;16.34;95.07
31538;BME280;18147;51.952;6.146;2022-07-03T00:13:17;101681.31;;;16.36;95.53
31538;BME280;18147;51.952;6.146;2022-07-03T00:15:43;101681.94;;;16.39;94.90
31538;BME280;18147;51.952;6.146;2022-07-03T00:18:09;101671.19;;;16.39;95.52
31538;BME280;18147;51.952;6.146;2022-07-03T00:20:40;101672.97;;;16.27;95.18
31538;BME280;18147;51.952;6.146;2022-07-03T00:23:09;101661.78;;;16.21;95.57
31538;BME280;18147;51.952;6.146;2022-07-03T00:25:36;101657.84;;;16.01;95.63
31538;BME280;18147;51.952;6.146;2022-07-03T00:28:04;101657.78;;;15.90;96.53
31538;BME280;18147;51.952;6.146;2022-07-03T00:30:30;101656.25;;;15.98;95.83
31538;BME280;18147;51.952;6.146;2022-07-03T00:32:56;101657.25;;;15.97;96.02
31538;BME280;18147;51.952;6.146;2022-07-03T00:35:22;101665.13;;;15.88;96.73
31538;BME280;18147;51.952;6.146;2022-07-03T00:37:48;101664.69;;;15.81;96.40
31538;BME280;18147;51.952;6.146;2022-07-03T00:40:14;101662.56;;;15.73;96.79
31538;BME280;18147;51.952;6.146;2022-07-03T00:42:39;101657.94;;;15.75;97.10
31538;BME280;18147;51.952;6.146;2022-07-03T00:45:07;101659.53;;;15.78;96.69
31538;BME280;18147;51.952;6.146;2022-07-03T00:47:36;101657.72;;;15.78;96.62
31538;BME280;18147;51.952;6.146;2022-07-03T00:50:06;101653.09;;;15.55;98.45
31538;BME280;18147;51.952;6.146;2022-07-03T00:52:32;101663.63;;;15.71;97.78
31538;BME280;18147;51.952;6.146;2022-07-03T00:54:59;101643.94;;;15.70;97.55
31538;BME280;18147;51.952;6.146;2022-07-03T00:57:29;101656.53;;;15.57;98.43
31538;BME280;18147;51.952;6.146;2022-07-03T00:59:56;101654.78;;;15.56;98.85
31538;BME280;18147;51.952;6.146;2022-07-03T01:02:48;101643.22;;;15.68;97.82
31538;BME280;18147;51.952;6.146;2022-07-03T01:18:49;101643.22;;;14.92;98.12
31538;BME280;18147;51.952;6.146;2022-07-03T01:24:43;101649.09;;;14.84;99.95
31538;BME280;18147;51.952;6.146;2022-07-03T01:27:18;101639.56;;;14.93;99.45
31538;BME280;18147;51.952;6.146;2022-07-03T01:29:56;101647.50;;;14.94;99.69
31538;BME280;18147;51.952;6.146;2022-07-03T01:32:32;101640.75;;;15.01;99.27
31538;BME280;18147;51.952;6.146;2022-07-03T01:35:00;101636.88;;;14.93;99.92
31538;BME280;18147;51.952;6.146;2022-07-03T01:37:27;101630.84;;;14.89;100.00
31538;BME280;18147;51.952;6.146;2022-07-03T01:39:57;101628.16;;;14.89;100.00
31538;BME280;18147;51.952;6.146;2022-07-03T01:42:24;101634.88;;;14.69;100.00
31538;BME280;18147;51.952;6.146;2022-07-03T01:44:53;101632.19;;;14.69;100.00
31538;BME280;18147;51.952;6.146;2022-07-03T01:47:21;101631.91;;;14.74;99.50
31538;BME280;18147;51.952;6.146;2022-07-03T01:49:49;101629.88;;;14.77;99.62
31538;BME280;18147;51.952;6.146;2022-07-03T01:52:15;101639.53;;;14.80;100.00
31538;BME280;18147;51.952;6.146;2022-07-03T01:54:42;101636.84;;;14.80;99.97
31538;BME280;18147;51.952;6.146;2022-07-03T01:57:09;101631.38;;;14.94;99.45
31538;BME280;18147;51.952;6.146;2022-07-03T01:59:35;101625.22;;;14.67;100.00
31538;BME280;18147;51.952;6.146;2022-07-03T02:07:20;101619.91;;;14.25;98.87
31538;BME280;18147;51.952;6.146;2022-07-03T02:09:49;101625.13;;;14.14;100.00
31538;BME280;18147;51.952;6.146;2022-07-03T02:12:17;101631.56;;;14.12;100.00
31538;BME280;18147;51.952;6.146;2022-07-03T02:14:50;101637.41;;;14.04;100.00
31538;BME280;18147;51.952;6.146;2022-07-03T02:17:21;101647.50;;;14.28;100.00
31538;BME280;18147;51.952;6.146;2022-07-03T02:19:58;101647.63;;;14.53;100.00
31538;BME280;18147;51.952;6.146;2022-07-03T02:22:27;101646.78;;;14.65;100.00
31538;BME280;18147;51.952;6.146;2022-07-03T02:25:04;101647.34;;;14.70;100.00
31538;BME280;18147;51.952;6.146;2022-07-03T02:27:41;101647.81;;;14.77;100.00
31538;BME280;18147;51.952;6.146;2022-07-03T02:30:07;101642.31;;;14.79;100.00
31538;BME280;18147;51.952;6.146;2022-07-03T02:32:36;101646.22;;;14.87;100.00
31538;BME280;18147;51.952;6.146;2022-07-03T02:35:06;101646.63;;;14.81;100.00
31538;BME280;18147;51.952;6.146;2022-07-03T02:37:41;101654.59;;;14.95;99.27
31538;BME280;18147;51.952;6.146;2022-07-03T02:40:16;101638.38;;;14.97;98.85
31538;BME280;18147;51.952;6.146;2022-07-03T02:42:50;101654.91;;;14.91;99.12
31538;BME280;18147;51.952;6.146;2022-07-03T02:45:21;101652.31;;;14.89;98.88
31538;BME280;18147;51.952;6.146;2022-07-03T02:47:59;101642.97;;;14.95;98.16
31538;BME280;18147;51.952;6.146;2022-07-03T02:50:28;101635.69;;;14.97;97.56
31538;BME280;18147;51.952;6.146;2022-07-03T02:53:21;101650.09;;;15.09;96.40
31538;BME280;18147;51.952;6.146;2022-07-03T02:55:50;101649.25;;;15.08;96.50
31538;BME280;18147;51.952;6.146;2022-07-03T02:58:41;101651.50;;;15.01;96.09
31538;BME280;18147;51.952;6.146;2022-07-03T03:01:20;101656.44;;;15.08;95.41
31538;BME280;18147;51.952;6.146;2022-07-03T03:06:50;101658.97;;;14.71;96.66
31538;BME280;18147;51.952;6.146;2022-07-03T03:09:27;101652.72;;;14.70;97.14
31538;BME280;18147;51.952;6.146;2022-07-03T03:11:56;101652.72;;;14.70;96.63
31538;BME280;18147;51.952;6.146;2022-07-03T03:14:30;101655.94;;;14.36;98.31
31538;BME280;18147;51.952;6.146;2022-07-03T03:17:05;101649.78;;;14.34;99.09
31538;BME280;18147;51.952;6.146;2022-07-03T03:19:36;101644.13;;;14.38;98.81
31538;BME280;18147;51.952;6.146;2022-07-03T03:25:04;101659.25;;;14.39;98.51
31538;BME280;18147;51.952;6.146;2022-07-03T03:27:30;101659.25;;;14.39;98.10
31538;BME280;18147;51.952;6.146;2022-07-03T03:29:56;101655.69;;;14.53;97.38
31538;BME280;18147;51.952;6.146;2022-07-03T03:32:22;101666.97;;;14.58;97.67
31538;BME280;18147;51.952;6.146;2022-07-03T03:34:50;101668.16;;;14.40;97.01
31538;BME280;18147;51.952;6.146;2022-07-03T03:37:15;101658.50;;;14.37;96.80
31538;BME280;18147;51.952;6.146;2022-07-03T03:39:41;101673.19;;;14.32;98.21
31538;BME280;18147;51.952;6.146;2022-07-03T03:42:07;101666.41;;;14.53;96.84
31538;BME280;18147;51.952;6.146;2022-07-03T03:44:33;101666.34;;;14.67;96.43
31538;BME280;18147;51.952;6.146;2022-07-03T03:46:59;101671.72;;;14.67;96.78
31538;BME280;18147;51.952;6.146;2022-07-03T03:49:24;101675.28;;;14.68;96.79
31538;BME280;18147;51.952;6.146;2022-07-03T03:51:50;101677.16;;;14.53;96.20
31538;BME280;18147;51.952;6.146;2022-07-03T03:54:16;101669.59;;;14.72;96.44
31538;BME280;18147;51.952;6.146;2022-07-03T03:56:41;101664.69;;;14.92;95.54
31538;BME280;18147;51.952;6.146;2022-07-03T03:59:06;101680.16;;;14.88;95.86
31538;BME280;18147;51.952;6.146;2022-07-03T04:01:32;101681.75;;;14.91;96.22
31538;BME280;18147;51.952;6.146;2022-07-03T04:03:57;101672.13;;;15.14;94.56
31538;BME280;18147;51.952;6.146;2022-07-03T04:06:24;101674.94;;;15.38;94.11
31538;BME280;18147;51.952;6.146;2022-07-03T04:08:50;101680.50;;;15.60;92.62
31538;BME280;18147;51.952;6.146;2022-07-03T04:11:16;101673.13;;;15.76;92.48
31538;BME280;18147;51.952;6.146;2022-07-03T04:13:41;101673.47;;;15.96;91.25
31538;BME280;18147;51.952;6.146;2022-07-03T04:16:06;101668.47;;;16.15;90.43
31538;BME280;18147;51.952;6.146;2022-07-03T04:18:32;101664.38;;;16.22;91.01
31538;BME280;18147;51.952;6.146;2022-07-03T04:20:57;101666.75;;;16.14;90.66
31538;BME280;18147;51.952;6.146;2022-07-03T04:23:23;101664.94;;;16.39;90.57
31538;BME280;18147;51.952;6.146;2022-07-03T04:25:49;101664.78;;;16.53;89.69
31538;BME280;18147;51.952;6.146;2022-07-03T04:28:15;101665.03;;;16.61;89.54
31538;BME280;18147;51.952;6.146;2022-07-03T04:30:40;101662.25;;;16.63;90.64
31538;BME280;18147;51.952;6.146;2022-07-03T04:33:06;101661.78;;;16.45;90.32
31538;BME280;18147;51.952;6.146;2022-07-03T04:35:31;101660.06;;;16.44;90.52
31538;BME280;18147;51.952;6.146;2022-07-03T04:37:57;101661.56;;;16.48;90.05
31538;BME280;18147;51.952;6.146;2022-07-03T04:40:22;101666.34;;;16.55;90.43
31538;BME280;18147;51.952;6.146;2022-07-03T04:42:48;101663.16;;;16.50;90.34
31538;BME280;18147;51.952;6.146;2022-07-03T04:45:13;101668.16;;;16.44;91.52
31538;BME280;18147;51.952;6.146;2022-07-03T04:47:39;101661.66;;;16.46;91.80
31538;BME280;18147;51.952;6.146;2022-07-03T04:50:04;101665.28;;;16.34;92.69
31538;BME280;18147;51.952;6.146;2022-07-03T04:52:30;101667.47;;;16.29;93.20
31538;BME280;18147;51.952;6.146;2022-07-03T04:54:55;101676.28;;;16.07;94.48
31538;BME280;18147;51.952;6.146;2022-07-03T04:57:21;101683.94;;;16.24;93.80
31538;BME280;18147;51.952;6.146;2022-07-03T04:59:46;101691.66;;;17.01;90.23
31538;BME280;18147;51.952;6.146;2022-07-03T05:02:12;101683.94;;;17.76;86.60
31538;BME280;18147;51.952;6.146;2022-07-03T05:04:37;101679.06;;;17.93;86.28
31538;BME280;18147;51.952;6.146;2022-07-03T05:07:03;101684.34;;;17.83;85.93
31538;BME280;18147;51.952;6.146;2022-07-03T05:09:29;101678.38;;;18.11;86.19
31538;BME280;18147;51.952;6.146;2022-07-03T05:11:55;101678.97;;;18.26;84.84
31538;BME280;18147;51.952;6.146;2022-07-03T05:14:20;101672.63;;;19.33;80.08
31538;BME280;18147;51.952;6.146;2022-07-03T05:16:46;101673.50;;;20.84;74.89
31538;BME280;18147;51.952;6.146;2022-07-03T05:19:11;101669.78;;;21.88;72.07
31538;BME280;18147;51.952;6.146;2022-07-03T05:21:37;101667.03;;;22.43;68.22
31538;BME280;18147;51.952;6.146;2022-07-03T05:24:02;101664.44;;;22.69;64.10
31538;BME280;18147;51.952;6.146;2022-07-03T05:26:28;101672.91;;;22.84;62.25
31538;BME280;18147;51.952;6.146;2022-07-03T05:28:53;101672.91;;;23.28;60.64
31538;BME280;18147;51.952;6.146;2022-07-03T05:31:19;101677.25;;;23.65;58.91
31538;BME280;18147;51.952;6.146;2022-07-03T05:33:44;101680.31;;;23.18;57.53
31538;BME280;18147;51.952;6.146;2022-07-03T05:36:10;101687.97;;;21.51;63.66
31538;BME280;18147;51.952;6.146;2022-07-03T05:38:35;101686.47;;;20.61;67.45
31538;BME280;18147;51.952;6.146;2022-07-03T05:41:19;101690.97;;;20.41;68.19
31538;BME280;18147;51.952;6.146;2022-07-03T05:43:45;101681.56;;;20.26;69.55
31538;BME280;18147;51.952;6.146;2022-07-03T05:46:10;101678.88;;;21.32;65.92
31538;BME280;18147;51.952;6.146;2022-07-03T05:48:36;101681.06;;;22.66;62.82
31538;BME280;18147;51.952;6.146;2022-07-03T05:51:02;101679.75;;;22.88;61.71
31538;BME280;18147;51.952;6.146;2022-07-03T05:53:27;101671.16;;;23.45;60.53
31538;BME280;18147;51.952;6.146;2022-07-03T05:55:53;101667.25;;;23.47;60.07
31538;BME280;18147;51.952;6.146;2022-07-03T05:58:18;101676.13;;;23.49;57.36
31538;BME280;18147;51.952;6.146;2022-07-03T06:00:44;101683.69;;;22.76;58.82
31538;BME280;18147;51.952;6.146;2022-07-03T06:03:10;101677.38;;;23.11;57.89
31538;BME280;18147;51.952;6.146;2022-07-03T06:05:35;101676.69;;;23.61;58.24
31538;BME280;18147;51.952;6.146;2022-07-03T06:08:01;101675.63;;;23.80;56.95
31538;BME280;18147;51.952;6.146;2022-07-03T06:10:28;101680.59;;;23.85;56.68
31538;BME280;18147;51.952;6.146;2022-07-03T06:12:54;101678.94;;;22.42;60.91
31538;BME280;18147;51.952;6.146;2022-07-03T06:15:19;101683.41;;;21.41;65.86
31538;BME280;18147;51.952;6.146;2022-07-03T06:17:45;101686.56;;;20.40;68.41
31538;BME280;18147;51.952;6.146;2022-07-03T06:20:11;101691.56;;;20.35;68.66
31538;BME280;18147;51.952;6.146;2022-07-03T06:22:37;101691.91;;;20.80;67.95
31538;BME280;18147;51.952;6.146;2022-07-03T06:25:03;101694.03;;;20.77;69.27
31538;BME280;18147;51.952;6.146;2022-07-03T06:27:29;101696.50;;;21.93;65.56
31538;BME280;18147;51.952;6.146;2022-07-03T06:29:55;101692.63;;;22.51;63.06
31538;BME280;18147;51.952;6.146;2022-07-03T06:32:20;101687.50;;;23.01;63.71
31538;BME280;18147;51.952;6.146;2022-07-03T06:34:46;101686.47;;;23.20;60.79
31538;BME280;18147;51.952;6.146;2022-07-03T06:37:12;101688.34;;;24.06;58.16
31538;BME280;18147;51.952;6.146;2022-07-03T06:39:37;101689.59;;;23.33;58.81
31538;BME280;18147;51.952;6.146;2022-07-03T06:42:03;101692.94;;;23.45;58.01
31538;BME280;18147;51.952;6.146;2022-07-03T06:44:29;101693.81;;;23.53;58.98
31538;BME280;18147;51.952;6.146;2022-07-03T06:46:54;101688.81;;;24.51;55.94
31538;BME280;18147;51.952;6.146;2022-07-03T06:49:20;101686.19;;;24.34;57.39
31538;BME280;18147;51.952;6.146;2022-07-03T06:51:45;101682.22;;;24.12;56.70
31538;BME280;18147;51.952;6.146;2022-07-03T06:54:11;101692.81;;;23.81;54.92
31538;BME280;18147;51.952;6.146;2022-07-03T06:56:36;101690.25;;;23.79;55.17
31538;BME280;18147;51.952;6.146;2022-07-03T06:59:02;101691.28;;;24.28;53.64
31538;BME280;18147;51.952;6.146;2022-07-03T07:01:27;101686.59;;;24.47;53.20
31538;BME280;18147;51.952;6.146;2022-07-03T07:03:53;101692.34;;;23.85;56.39
31538;BME280;18147;51.952;6.146;2022-07-03T07:06:18;101696.97;;;24.43;54.36
31538;BME280;18147;51.952;6.146;2022-07-03T07:08:44;101686.81;;;25.02;54.59
31538;BME280;18147;51.952;6.146;2022-07-03T07:11:09;101684.38;;;24.59;52.62
31538;BME280;18147;51.952;6.146;2022-07-03T07:13:35;101686.34;;;25.07;52.25
31538;BME280;18147;51.952;6.146;2022-07-03T07:16:00;101688.13;;;24.49;54.26
31538;BME280;18147;51.952;6.146;2022-07-03T07:18:26;101686.91;;;24.44;54.57
31538;BME280;18147;51.952;6.146;2022-07-03T07:20:52;101691.44;;;23.76;56.22
31538;BME280;18147;51.952;6.146;2022-07-03T07:23:17;101696.06;;;23.84;55.90
31538;BME280;18147;51.952;6.146;2022-07-03T07:25:43;101690.84;;;24.49;52.69
31538;BME280;18147;51.952;6.146;2022-07-03T07:28:08;101690.25;;;24.21;56.20
31538;BME280;18147;51.952;6.146;2022-07-03T07:30:34;101694.09;;;24.53;53.69
31538;BME280;18147;51.952;6.146;2022-07-03T07:32:59;101698.78;;;25.18;51.88
31538;BME280;18147;51.952;6.146;2022-07-03T07:35:24;101700.47;;;25.27;53.30
31538;BME280;18147;51.952;6.146;2022-07-03T07:37:50;101697.91;;;24.93;53.06
31538;BME280;18147;51.952;6.146;2022-07-03T07:40:15;101697.41;;;25.22;51.83
31538;BME280;18147;51.952;6.146;2022-07-03T07:42:41;101706.09;;;25.01;54.05
31538;BME280;18147;51.952;6.146;2022-07-03T07:45:08;101704.97;;;25.83;50.09
31538;BME280;18147;51.952;6.146;2022-07-03T07:47:34;101701.63;;;25.00;50.69
31538;BME280;18147;51.952;6.146;2022-07-03T07:49:59;101704.03;;;25.44;50.87
31538;BME280;18147;51.952;6.146;2022-07-03T07:52:25;101709.88;;;25.08;49.89
31538;BME280;18147;51.952;6.146;2022-07-03T07:54:50;101709.47;;;25.52;50.43
31538;BME280;18147;51.952;6.146;2022-07-03T07:57:16;101710.09;;;25.70;51.21
31538;BME280;18147;51.952;6.146;2022-07-03T07:59:41;101704.22;;;26.68;47.91
31538;BME280;18147;51.952;6.146;2022-07-03T08:02:06;101710.22;;;26.64;48.53
31538;BME280;18147;51.952;6.146;2022-07-03T08:04:50;101714.38;;;25.73;48.47
31538;BME280;18147;51.952;6.146;2022-07-03T08:07:34;101716.63;;;25.77;49.70
31538;BME280;18147;51.952;6.146;2022-07-03T08:10:00;101719.47;;;25.92;51.85
31538;BME280;18147;51.952;6.146;2022-07-03T08:12:25;101725.69;;;25.62;50.76
31538;BME280;18147;51.952;6.146;2022-07-03T08:14:51;101719.59;;;25.19;51.89
31538;BME280;18147;51.952;6.146;2022-07-03T08:17:16;101720.44;;;26.07;48.64
31538;BME280;18147;51.952;6.146;2022-07-03T08:19:42;101724.19;;;25.26;51.09
31538;BME280;18147;51.952;6.146;2022-07-03T08:22:07;101716.44;;;25.79;51.34
31538;BME280;18147;51.952;6.146;2022-07-03T08:24:33;101723.66;;;25.39;49.21
31538;BME280;18147;51.952;6.146;2022-07-03T08:26:58;101721.13;;;25.21;49.79
31538;BME280;18147;51.952;6.146;2022-07-03T08:29:24;101725.63;;;25.70;47.17
31538;BME280;18147;51.952;6.146;2022-07-03T08:31:50;101729.31;;;25.38;47.19
31538;BME280;18147;51.952;6.146;2022-07-03T08:34:15;101723.31;;;25.34;48.13
31538;BME280;18147;51.952;6.146;2022-07-03T08:36:41;101716.31;;;26.74;47.74
31538;BME280;18147;51.952;6.146;2022-07-03T08:39:07;101722.47;;;25.09;46.63
31538;BME280;18147;51.952;6.146;2022-07-03T08:41:36;101725.03;;;25.43;46.60
31538;BME280;18147;51.952;6.146;2022-07-03T08:44:04;101729.59;;;26.23;48.83
31538;BME280;18147;51.952;6.146;2022-07-03T08:46:31;101736.28;;;25.56;46.01
31538;BME280;18147;51.952;6.146;2022-07-03T08:48:59;101736.06;;;25.82;51.04
31538;BME280;18147;51.952;6.146;2022-07-03T08:51:24;101729.81;;;26.05;48.86
31538;BME280;18147;51.952;6.146;2022-07-03T08:53:52;101731.47;;;25.75;48.67
31538;BME280;18147;51.952;6.146;2022-07-03T08:56:22;101726.75;;;25.20;45.30
31538;BME280;18147;51.952;6.146;2022-07-03T08:58:48;101727.09;;;25.41;47.14
31538;BME280;18147;51.952;6.146;2022-07-03T09:01:15;101719.00;;;25.72;48.02
31538;BME280;18147;51.952;6.146;2022-07-03T09:03:42;101728.41;;;25.04;47.80
31538;BME280;18147;51.952;6.146;2022-07-03T09:06:08;101727.94;;;25.09;48.61
31538;BME280;18147;51.952;6.146;2022-07-03T09:08:34;101723.81;;;25.54;47.31
31538;BME280;18147;51.952;6.146;2022-07-03T09:11:03;101722.31;;;26.38;47.02
31538;BME280;18147;51.952;6.146;2022-07-03T09:13:29;101729.38;;;25.85;49.51
31538;BME280;18147;51.952;6.146;2022-07-03T09:15:55;101725.72;;;26.40;48.30
31538;BME280;18147;51.952;6.146;2022-07-03T09:18:41;101721.09;;;26.09;46.98
31538;BME280;18147;51.952;6.146;2022-07-03T09:21:08;101722.53;;;25.97;47.25
31538;BME280;18147;51.952;6.146;2022-07-03T09:23:42;101722.25;;;25.76;48.53
31538;BME280;18147;51.952;6.146;2022-07-03T09:26:15;101715.06;;;25.67;47.54
31538;BME280;18147;51.952;6.146;2022-07-03T09:28:44;101716.97;;;25.58;51.16
31538;BME280;18147;51.952;6.146;2022-07-03T09:31:11;101719.41;;;25.37;47.15
31538;BME280;18147;51.952;6.146;2022-07-03T09:34:00;101715.59;;;25.54;50.21
31538;BME280;18147;51.952;6.146;2022-07-03T09:36:46;101721.41;;;25.59;51.53
31538;BME280;18147;51.952;6.146;2022-07-03T09:47:22;101719.25;;;26.02;48.16
31538;BME280;18147;51.952;6.146;2022-07-03T09:49:58;101722.25;;;25.68;47.46
31538;BME280;18147;51.952;6.146;2022-07-03T09:57:34;101726.34;;;25.72;47.72
31538;BME280;18147;51.952;6.146;2022-07-03T10:02:34;101722.28;;;24.86;47.65
31538;BME280;18147;51.952;6.146;2022-07-03T10:05:11;101724.22;;;25.98;47.22
31538;BME280;18147;51.952;6.146;2022-07-03T10:07:56;101729.16;;;26.03;48.53
31538;BME280;18147;51.952;6.146;2022-07-03T10:10:24;101739.00;;;25.56;49.60
31538;BME280;18147;51.952;6.146;2022-07-03T10:12:50;101741.06;;;25.46;49.07
31538;BME280;18147;51.952;6.146;2022-07-03T10:15:17;101738.31;;;24.97;50.26
31538;BME280;18147;51.952;6.146;2022-07-03T10:17:43;101732.19;;;25.44;51.64
31538;BME280;18147;51.952;6.146;2022-07-03T10:20:13;101738.00;;;25.25;49.03
31538;BME280;18147;51.952;6.146;2022-07-03T10:22:41;101730.97;;;25.55;49.98
31538;BME280;18147;51.952;6.146;2022-07-03T10:25:10;101731.66;;;25.57;47.53
31538;BME280;18147;51.952;6.146;2022-07-03T10:27:36;101736.66;;;25.21;48.90
31538;BME280;18147;51.952;6.146;2022-07-03T10:30:03;101735.59;;;24.97;48.43
31538;BME280;18147;51.952;6.146;2022-07-03T10:32:29;101733.91;;;25.37;48.91
31538;BME280;18147;51.952;6.146;2022-07-03T10:34:58;101737.66;;;25.44;48.58
31538;BME280;18147;51.952;6.146;2022-07-03T10:37:26;101740.19;;;25.62;51.50
31538;BME280;18147;51.952;6.146;2022-07-03T10:40:09;101736.41;;;25.71;49.36
31538;BME280;18147;51.952;6.146;2022-07-03T10:43:03;101744.03;;;26.40;50.46
31538;BME280;18147;51.952;6.146;2022-07-03T10:46:12;101741.06;;;24.97;49.66
31538;BME280;18147;51.952;6.146;2022-07-03T10:48:57;101736.47;;;25.14;52.51
31538;BME280;18147;51.952;6.146;2022-07-03T10:51:24;101743.78;;;25.63;50.37
31538;BME280;18147;51.952;6.146;2022-07-03T10:53:50;101741.97;;;26.11;52.15
31538;BME280;18147;51.952;6.146;2022-07-03T10:56:16;101744.50;;;26.12;48.58
31538;BME280;18147;51.952;6.146;2022-07-03T10:59:00;101745.16;;;25.34;50.52
31538;BME280;18147;51.952;6.146;2022-07-03T11:01:29;101752.53;;;25.25;50.60
31538;BME280;18147;51.952;6.146;2022-07-03T11:03:59;101747.56;;;25.37;52.59
31538;BME280;18147;51.952;6.146;2022-07-03T11:09:17;101749.91;;;26.20;50.63
31538;BME280;18147;51.952;6.146;2022-07-03T11:11:46;101749.78;;;26.22;49.81
31538;BME280;18147;51.952;6.146;2022-07-03T11:14:22;101746.63;;;26.33;49.97
31538;BME280;18147;51.952;6.146;2022-07-03T11:16:48;101745.94;;;26.93;53.16
31538;BME280;18147;51.952;6.146;2022-07-03T11:19:14;101749.34;;;26.02;50.07
31538;BME280;18147;51.952;6.146;2022-07-03T11:21:48;101748.38;;;25.62;50.05
31538;BME280;18147;51.952;6.146;2022-07-03T11:24:38;101749.94;;;25.56;50.34
31538;BME280;18147;51.952;6.146;2022-07-03T11:27:21;101752.44;;;24.85;52.02
31538;BME280;18147;51.952;6.146;2022-07-03T11:29:49;101755.19;;;24.26;53.65
31538;BME280;18147;51.952;6.146;2022-07-03T11:32:44;101743.22;;;24.19;53.74
31538;BME280;18147;51.952;6.146;2022-07-03T11:38:16;101734.59;;;25.31;52.65
31538;BME280;18147;51.952;6.146;2022-07-03T11:40:42;101736.47;;;25.06;49.73
31538;BME280;18147;51.952;6.146;2022-07-03T11:43:10;101734.94;;;25.36;50.38
31538;BME280;18147;51.952;6.146;2022-07-03T11:45:40;101734.09;;;25.36;50.16
31538;BME280;18147;51.952;6.146;2022-07-03T11:48:12;101736.53;;;24.47;52.28
31538;BME280;18147;51.952;6.146;2022-07-03T11:50:41;101734.16;;;25.91;49.26
31538;BME280;18147;51.952;6.146;2022-07-03T11:53:22;101737.94;;;25.74;47.26
31538;BME280;18147;51.952;6.146;2022-07-03T11:55:48;101726.03;;;26.53;45.33
31538;BME280;18147;51.952;6.146;2022-07-03T11:58:14;101730.84;;;26.74;46.06
31538;BME280;18147;51.952;6.146;2022-07-03T12:00:40;101736.31;;;26.51;46.72
31538;BME280;18147;51.952;6.146;2022-07-03T12:03:06;101727.50;;;26.33;47.57
31538;BME280;18147;51.952;6.146;2022-07-03T12:05:32;101715.66;;;27.18;44.65
31538;BME280;18147;51.952;6.146;2022-07-03T12:08:05;101730.97;;;26.19;46.19
31538;BME280;18147;51.952;6.146;2022-07-03T12:10:40;101729.06;;;25.64;48.26
31538;BME280;18147;51.952;6.146;2022-07-03T12:13:22;101726.75;;;25.12;50.66
31538;BME280;18147;51.952;6.146;2022-07-03T12:15:49;101723.16;;;26.07;50.23
31538;BME280;18147;51.952;6.146;2022-07-03T12:18:15;101724.25;;;25.90;49.03
31538;BME280;18147;51.952;6.146;2022-07-03T12:20:41;101711.38;;;26.69;49.96
31538;BME280;18147;51.952;6.146;2022-07-03T12:23:07;101714.31;;;26.68;48.09
31538;BME280;18147;51.952;6.146;2022-07-03T12:25:38;101720.69;;;26.60;49.10
31538;BME280;18147;51.952;6.146;2022-07-03T12:28:03;101708.97;;;26.97;45.64
31538;BME280;18147;51.952;6.146;2022-07-03T12:30:29;101725.44;;;25.96;47.29
31538;BME280;18147;51.952;6.146;2022-07-03T12:32:55;101710.22;;;26.32;48.17
31538;BME280;18147;51.952;6.146;2022-07-03T12:35:22;101714.13;;;26.46;47.52
31538;BME280;18147;51.952;6.146;2022-07-03T12:37:48;101704.53;;;26.73;44.33
31538;BME280;18147;51.952;6.146;2022-07-03T12:40:14;101711.91;;;26.02;43.74
31538;BME280;18147;51.952;6.146;2022-07-03T12:45:25;101704.81;;;26.55;46.73
31538;BME280;18147;51.952;6.146;2022-07-03T12:48:04;101708.78;;;26.14;44.66
31538;BME280;18147;51.952;6.146;2022-07-03T12:53:09;101710.31;;;25.61;47.86
31538;BME280;18147;51.952;6.146;2022-07-03T12:55:35;101715.47;;;25.39;47.52
31538;BME280;18147;51.952;6.146;2022-07-03T12:58:30;101717.31;;;25.63;46.99
31538;BME280;18147;51.952;6.146;2022-07-03T13:03:50;101718.03;;;26.13;46.85
31538;BME280;18147;51.952;6.146;2022-07-03T13:06:15;101710.47;;;26.15;49.32
31538;BME280;18147;51.952;6.146;2022-07-03T13:08:55;101712.69;;;25.72;46.47
31538;BME280;18147;51.952;6.146;2022-07-03T13:11:34;101709.16;;;26.11;50.17
31538;BME280;18147;51.952;6.146;2022-07-03T13:16:39;101713.63;;;26.43;47.16
31538;BME280;18147;51.952;6.146;2022-07-03T13:19:06;101718.03;;;25.24;46.25
31538;BME280;18147;51.952;6.146;2022-07-03T13:21:32;101710.03;;;25.31;48.01
31538;BME280;18147;51.952;6.146;2022-07-03T13:23:58;101703.69;;;26.42;47.67
31538;BME280;18147;51.952;6.146;2022-07-03T13:26:23;101698.38;;;27.17;43.56
31538;BME280;18147;51.952;6.146;2022-07-03T13:28:49;101705.09;;;26.29;40.66
31538;BME280;18147;51.952;6.146;2022-07-03T13:31:15;101707.47;;;26.01;42.17
31538;BME280;18147;51.952;6.146;2022-07-03T13:33:41;101702.84;;;26.41;42.82
31538;BME280;18147;51.952;6.146;2022-07-03T13:36:06;101705.09;;;25.98;41.97
31538;BME280;18147;51.952;6.146;2022-07-03T13:38:31;101694.41;;;26.74;43.68
31538;BME280;18147;51.952;6.146;2022-07-03T13:40:57;101706.16;;;26.20;41.18
31538;BME280;18147;51.952;6.146;2022-07-03T13:43:22;101707.00;;;25.90;42.10
31538;BME280;18147;51.952;6.146;2022-07-03T13:45:48;101708.63;;;25.35;43.54
31538;BME280;18147;51.952;6.146;2022-07-03T13:48:13;101701.66;;;27.13;42.95
31538;BME280;18147;51.952;6.146;2022-07-03T13:50:42;101699.41;;;26.93;41.41
31538;BME280;18147;51.952;6.146;2022-07-03T13:53:07;101707.78;;;26.06;40.92
31538;BME280;18147;51.952;6.146;2022-07-03T13:55:33;101709.00;;;25.24;43.82
31538;BME280;18147;51.952;6.146;2022-07-03T13:57:58;101712.13;;;25.85;44.54